Time;durP1;ratioP1;P1;durP2;ratioP2;P2;SDS_P1;SDS_P2;PMS_P1;PMS_P2;Temp;Humidity;BMP_temperature;BMP_pressure;BME280_temperature;BME280_humidity;BME280_pressure;Samples;Min_cycle;Max_cycle;Signal;HPM_P1;HPM_P2
2023/05/08 00:00:03;;;;;;;2.72;1.70;;;14.50;99.90;;;13.80;100.00;98126.16;4967583;28;20051;-79
2023/05/08 00:02:31;;;;;;;5.88;1.95;;;14.50;99.90;;;13.76;100.00;98128.06;4950800;28;20158;-78
2023/05/08 00:04:58;;;;;;;2.67;1.30;;;14.50;99.90;;;13.84;100.00;98119.88;4963510;28;20051;-78
2023/05/08 00:07:25;;;;;;;2.40;1.52;;;14.50;99.90;;;13.86;100.00;98125.03;4965756;28;20050;-78
2023/05/08 00:09:52;;;;;;;2.95;1.63;;;14.50;99.90;;;13.95;100.00;98127.19;4964071;28;20074;-79
2023/05/08 00:12:19;;;;;;;5.63;2.10;;;14.60;99.90;;;13.74;100.00;98127.28;4966183;28;20054;-79
2023/05/08 00:14:47;;;;;;;6.55;2.30;;;14.60;99.90;;;13.77;100.00;98119.31;4970308;28;20051;-79
2023/05/08 00:17:14;;;;;;;3.90;1.70;;;14.60;99.90;;;13.76;100.00;98130.69;4967276;28;20050;-78
2023/05/08 00:19:41;;;;;;;7.20;1.73;;;14.60;99.90;;;13.68;100.00;98134.56;4967800;28;20537;-78
2023/05/08 00:22:08;;;;;;;4.20;2.05;;;14.60;99.90;;;13.56;100.00;98134.19;4953383;28;20057;-78
2023/05/08 00:24:35;;;;;;;4.07;2.10;;;14.50;99.90;;;13.49;100.00;98137.16;4971094;28;20570;-79
2023/05/08 00:27:02;;;;;;;5.38;2.55;;;14.50;99.90;;;13.53;100.00;98142.16;4962184;28;20058;-78
2023/05/08 00:29:29;;;;;;;3.42;1.95;;;14.40;99.90;;;13.47;100.00;98141.59;4965235;28;20061;-78
2023/05/08 00:31:56;;;;;;;7.22;2.33;;;14.40;99.90;;;13.41;100.00;98147.09;4969171;28;20057;-78
2023/05/08 00:34:23;;;;;;;5.15;2.58;;;14.40;99.90;;;13.35;100.00;98141.22;4964797;28;20225;-79
2023/05/08 00:36:51;;;;;;;6.25;2.95;;;14.30;99.90;;;13.46;100.00;98150.34;4967408;28;20051;-78
2023/05/08 00:39:18;;;;;;;4.47;2.65;;;14.30;99.90;;;13.55;100.00;98150.78;4967807;28;20051;-79
2023/05/08 00:41:45;;;;;;;6.25;2.40;;;14.30;99.90;;;13.64;100.00;98146.03;4972537;28;20043;-78
2023/05/08 00:44:12;;;;;;;3.90;2.50;;;14.30;99.90;;;13.58;100.00;98155.84;4970369;28;20047;-79
2023/05/08 00:46:41;;;;;;;5.60;2.83;;;14.30;99.90;;;13.61;100.00;98147.03;4953208;28;20055;-79
2023/05/08 00:49:13;;;;;;;4.03;2.17;;;14.40;99.90;;;13.62;100.00;98151.34;4986278;28;20065;-78
2023/05/08 00:51:43;;;;;;;5.80;2.67;;;14.40;99.90;;;13.51;100.00;98141.38;4972160;28;20076;-78
2023/05/08 00:54:10;;;;;;;6.00;2.13;;;14.40;99.90;;;13.63;100.00;98142.59;4978190;28;20050;-79
2023/05/08 00:56:38;;;;;;;6.55;2.63;;;14.30;99.90;;;13.50;100.00;98137.09;4960147;28;20136;-78
2023/05/08 00:59:10;;;;;;;3.83;2.95;;;14.30;99.90;;;13.27;100.00;98138.06;4969677;28;20049;-78
2023/05/08 01:01:38;;;;;;;4.68;3.00;;;14.30;99.90;;;13.10;100.00;98141.44;4968656;28;20046;-78
2023/05/08 01:04:06;;;;;;;5.25;3.80;;;14.20;99.90;;;13.12;100.00;98147.44;4952285;28;20050;-78
2023/05/08 01:06:35;;;;;;;4.85;4.35;;;14.10;99.90;;;13.00;100.00;98153.19;4972789;28;20054;-78
2023/05/08 01:09:03;;;;;;;3.80;3.22;;;14.00;99.90;;;13.10;100.00;98151.88;4975970;28;20047;-78
2023/05/08 01:11:37;;;;;;;5.78;4.97;;;13.90;99.90;;;13.02;100.00;98156.56;4972001;28;20063;-78
2023/05/08 01:14:28;;;;;;;8.75;4.28;;;13.90;99.90;;;12.84;100.00;98153.00;4974994;28;20131;-78
2023/05/08 01:17:11;;;;;;;4.50;3.15;;;13.90;99.90;;;12.76;100.00;98149.88;4967097;28;20077;-79
2023/05/08 01:20:00;;;;;;;5.00;2.95;;;13.80;99.90;;;12.76;100.00;98155.91;4966194;28;20061;-79
2023/05/08 01:23:06;;;;;;;7.95;5.18;;;13.80;99.90;;;12.70;100.00;98158.81;4969728;28;20055;-78
2023/05/08 01:25:52;;;;;;;8.45;5.45;;;13.70;99.90;;;12.79;100.00;98159.31;4971755;28;20055;-78
2023/05/08 01:29:08;;;;;;;7.18;6.00;;;13.60;99.90;;;12.79;100.00;98160.16;4968201;28;20055;-78
2023/05/08 01:31:51;;;;;;;7.35;5.28;;;13.60;99.90;;;12.90;100.00;98165.75;4971215;28;20046;-79
2023/05/08 01:34:26;;;;;;;4.90;4.15;;;13.60;99.90;;;12.99;100.00;98164.50;4970964;28;20074;-79
2023/05/08 01:37:02;;;;;;;8.35;5.57;;;13.70;99.90;;;12.84;100.00;98166.03;4953163;28;20452;-78
2023/05/08 01:40:04;;;;;;;6.30;4.60;;;13.70;99.90;;;12.74;100.00;98164.72;4974141;28;20050;-79
2023/05/08 01:43:07;;;;;;;7.85;4.85;;;13.60;99.90;;;12.74;100.00;98173.38;4974180;28;20047;-79
2023/05/08 01:45:39;;;;;;;10.73;6.45;;;13.60;99.90;;;12.75;100.00;98177.69;4962255;28;20055;-79
2023/05/08 01:48:18;;;;;;;10.15;8.23;;;13.60;99.90;;;12.87;100.00;98178.91;4976910;28;20059;-79
2023/05/08 01:50:48;;;;;;;7.90;7.13;;;13.60;99.90;;;12.82;100.00;98187.81;4974030;28;20054;-79
2023/05/08 01:53:20;;;;;;;7.43;6.57;;;13.60;99.90;;;12.81;100.00;98196.56;4969208;28;20057;-79
2023/05/08 01:55:50;;;;;;;7.70;6.90;;;13.60;99.90;;;12.73;100.00;98189.06;4955275;28;20133;-78
2023/05/08 01:58:18;;;;;;;9.25;6.50;;;13.60;99.90;;;12.73;100.00;98186.47;4951392;28;20435;-80
2023/05/08 02:00:52;;;;;;;8.52;7.22;;;13.60;99.90;;;12.75;100.00;98193.31;4955122;28;20043;-80
2023/05/08 02:03:22;;;;;;;7.43;6.40;;;13.70;99.90;;;12.88;100.00;98203.22;4976578;28;20133;-78
2023/05/08 02:05:51;;;;;;;6.82;6.13;;;13.60;99.90;;;12.90;100.00;98202.22;4956451;28;20042;-79
2023/05/08 02:08:21;;;;;;;8.93;7.03;;;13.70;99.90;;;12.94;100.00;98201.19;4972089;28;20049;-79
2023/05/08 02:10:50;;;;;;;8.77;7.82;;;13.70;99.90;;;13.01;100.00;98199.19;4954831;28;20138;-79
2023/05/08 02:13:20;;;;;;;7.43;6.72;;;13.70;99.90;;;13.05;100.00;98203.34;4958145;28;20060;-79
2023/05/08 02:15:49;;;;;;;13.27;9.27;;;13.80;99.90;;;13.06;100.00;98198.97;4973778;28;20055;-79
2023/05/08 02:18:21;;;;;;;7.15;6.30;;;13.80;99.90;;;13.22;100.00;98212.19;4970671;28;20046;-79
2023/05/08 02:20:53;;;;;;;8.73;6.75;;;13.80;99.90;;;13.36;100.00;98197.69;4973839;28;20058;-79
2023/05/08 02:23:24;;;;;;;9.65;6.28;;;13.90;99.90;;;13.39;100.00;98197.56;4972225;28;20101;-79
2023/05/08 02:25:53;;;;;;;10.90;6.82;;;13.90;99.90;;;13.37;100.00;98188.94;4971990;28;20048;-79
2023/05/08 02:28:22;;;;;;;14.07;6.10;;;14.00;99.90;;;13.39;100.00;98181.91;4973577;28;20054;-79
2023/05/08 02:30:51;;;;;;;9.13;6.32;;;14.00;99.90;;;13.55;100.00;98173.41;4970934;28;20078;-79
2023/05/08 02:33:19;;;;;;;9.82;6.75;;;14.10;99.90;;;13.42;100.00;98178.31;4970297;28;20434;-79
2023/05/08 02:35:49;;;;;;;5.32;4.18;;;14.20;99.90;;;13.60;100.00;98179.25;4971875;28;20082;-79
2023/05/08 02:38:20;;;;;;;8.50;5.93;;;14.20;99.90;;;13.65;100.00;98173.84;4944430;28;20420;-80
2023/05/08 02:41:00;;;;;;;6.82;6.13;;;14.20;99.90;;;13.58;100.00;98168.88;4970680;28;20070;-80
2023/05/08 02:43:28;;;;;;;10.52;8.30;;;14.20;99.90;;;13.38;100.00;98174.97;4938298;28;20076;-79
2023/05/08 02:46:02;;;;;;;9.93;7.90;;;14.20;99.90;;;13.29;100.00;98174.56;4971971;28;20051;-79
2023/05/08 02:48:53;;;;;;;8.23;5.88;;;14.10;99.90;;;13.43;100.00;98172.16;4982721;28;20051;-79
2023/05/08 02:51:54;;;;;;;7.57;6.53;;;14.10;99.90;;;13.43;100.00;98172.16;4976640;28;20050;-80
2023/05/08 02:54:37;;;;;;;9.38;7.78;;;14.10;99.90;;;13.36;100.00;98171.63;4977169;28;20055;-79
2023/05/08 02:57:38;;;;;;;10.20;8.25;;;14.10;99.90;;;13.36;100.00;98170.75;4973851;28;20050;-79
2023/05/08 03:00:31;;;;;;;7.20;5.90;;;14.10;99.90;;;13.26;100.00;98166.84;4953842;28;20047;-78
2023/05/08 03:03:15;;;;;;;11.45;8.20;;;14.10;99.90;;;13.02;100.00;98172.19;4969236;28;20047;-79
2023/05/08 03:05:52;;;;;;;14.43;8.85;;;14.00;99.90;;;12.95;100.00;98184.66;4975128;28;20054;-79
2023/05/08 03:08:41;;;;;;;9.77;6.75;;;13.90;99.90;;;13.08;100.00;98184.13;4971991;28;20066;-79
2023/05/08 03:11:14;;;;;;;10.38;9.27;;;13.80;99.90;;;13.13;100.00;98185.59;4979662;28;20054;-79
2023/05/08 03:13:43;;;;;;;10.70;8.25;;;13.80;99.90;;;13.18;100.00;98185.41;4975943;28;20054;-79
2023/05/08 03:16:18;;;;;;;11.55;6.97;;;13.90;99.90;;;13.17;100.00;98186.34;4981187;28;20752;-79
2023/05/08 03:19:00;;;;;;;7.20;6.38;;;13.90;99.90;;;13.05;100.00;98181.66;4974551;28;20053;-79
2023/05/08 03:21:29;;;;;;;10.52;8.40;;;13.90;99.90;;;13.23;100.00;98191.28;4962631;28;20133;-79
2023/05/08 03:23:59;;;;;;;10.82;7.15;;;13.90;99.90;;;13.29;100.00;98192.81;4980182;28;20149;-79
2023/05/08 03:26:27;;;;;;;8.30;6.93;;;13.90;99.90;;;13.14;100.00;98184.72;4970489;28;20067;-79
2023/05/08 03:28:57;;;;;;;9.98;7.32;;;14.00;99.90;;;13.26;100.00;98187.69;4977278;28;20078;-79
2023/05/08 03:31:25;;;;;;;8.98;8.07;;;14.00;99.90;;;13.29;100.00;98187.59;4963891;28;20138;-79
2023/05/08 03:33:54;;;;;;;7.00;5.72;;;14.10;99.90;;;13.37;100.00;98182.91;4974005;28;20054;-78
2023/05/08 03:36:23;;;;;;;6.55;5.20;;;14.10;99.90;;;13.57;100.00;98182.84;4976310;28;20113;-79
2023/05/08 03:38:51;;;;;;;6.43;5.60;;;14.10;99.90;;;13.65;100.00;98173.84;4973461;28;20094;-80
2023/05/08 03:41:18;;;;;;;7.03;5.45;;;14.20;99.90;;;13.50;100.00;98165.78;4972889;28;20055;-78
2023/05/08 03:43:45;;;;;;;7.18;6.28;;;14.20;99.90;;;13.48;100.00;98166.75;4974647;28;20042;-78
2023/05/08 03:46:15;;;;;;;7.72;6.32;;;14.20;99.90;;;13.57;100.00;98166.34;4976446;28;20043;-79
2023/05/08 03:48:44;;;;;;;7.75;6.50;;;14.20;99.90;;;13.60;100.00;98164.44;4968676;28;20106;-79
2023/05/08 03:51:11;;;;;;;10.07;8.02;;;14.30;99.90;;;13.70;100.00;98164.88;4959876;28;20074;-79
2023/05/08 03:53:39;;;;;;;11.18;8.18;;;14.30;99.90;;;13.70;100.00;98167.47;4973833;28;20043;-79
2023/05/08 03:56:06;;;;;;;12.52;8.73;;;14.30;99.90;;;13.67;100.00;98166.78;4976858;28;20051;-79
2023/05/08 03:58:45;;;;;;;7.90;6.25;;;14.30;99.90;;;13.64;100.00;98166.91;4973063;28;20055;-79
2023/05/08 04:01:25;;;;;;;9.35;8.38;;;14.30;99.90;;;13.70;100.00;98166.63;4966923;28;20051;-79
2023/05/08 04:04:04;;;;;;;10.75;9.60;;;14.30;99.90;;;13.38;100.00;98174.97;4974868;28;20049;-79
2023/05/08 04:06:35;;;;;;;11.57;10.15;;;14.20;99.90;;;13.44;100.00;98183.47;4961848;28;20428;-79
2023/05/08 04:09:37;;;;;;;16.33;13.00;;;14.20;99.90;;;13.48;100.00;98190.22;4982545;28;20047;-80
2023/05/08 04:12:36;;;;;;;11.45;9.50;;;14.20;99.90;;;13.65;100.00;98192.94;4973324;28;21987;-77
2023/05/08 04:15:11;;;;;;;11.35;10.02;;;14.20;99.90;;;13.71;100.00;98190.06;4977712;28;20057;-77
2023/05/08 04:17:44;;;;;;;13.63;12.00;;;14.30;99.90;;;13.67;100.00;98198.94;4975481;28;20054;-77
2023/05/08 04:20:18;;;;;;;14.05;12.60;;;14.30;99.90;;;13.67;100.00;98192.88;4973125;28;20844;-77
2023/05/08 04:22:49;;;;;;;16.95;13.68;;;14.30;99.90;;;13.73;100.00;98197.78;4965395;28;20054;-77
2023/05/08 04:25:18;;;;;;;18.42;15.30;;;14.40;99.90;;;13.76;100.00;98202.88;4956736;28;20143;-77
2023/05/08 04:27:46;;;;;;;14.98;13.13;;;14.30;99.90;;;13.68;100.00;98205.81;4973753;28;20050;-78
2023/05/08 04:30:13;;;;;;;16.38;13.95;;;14.40;99.90;;;13.64;100.00;98200.81;4955168;28;20129;-77
2023/05/08 04:32:41;;;;;;;15.82;13.05;;;14.30;99.90;;;13.65;100.00;98205.13;4955358;28;20065;-79
2023/05/08 04:35:13;;;;;;;10.98;9.32;;;14.30;99.90;;;13.57;100.00;98206.31;4969054;28;20046;-79
2023/05/08 04:37:44;;;;;;;11.48;9.75;;;14.30;99.90;;;13.46;100.00;98207.72;4972558;28;20389;-79
2023/05/08 04:40:11;;;;;;;11.35;10.18;;;14.30;99.90;;;13.55;100.00;98215.13;4973041;28;20063;-79
2023/05/08 04:42:41;;;;;;;16.27;13.95;;;14.30;99.90;;;13.51;100.00;98218.78;4975101;28;20051;-79
2023/05/08 04:45:12;;;;;;;16.08;12.18;;;14.30;99.90;;;13.64;100.00;98211.25;4977222;28;20533;-79
2023/05/08 04:47:39;;;;;;;14.00;11.52;;;14.30;99.90;;;13.79;100.00;98221.00;4974124;28;20069;-79
2023/05/08 04:50:08;;;;;;;15.00;12.10;;;14.30;99.90;;;13.83;100.00;98219.97;4967955;28;20131;-79
2023/05/08 04:52:35;;;;;;;14.68;11.77;;;14.30;99.90;;;13.73;100.00;98221.28;4985369;28;20408;-78
2023/05/08 04:55:03;;;;;;;15.27;12.13;;;14.30;99.90;;;13.76;100.00;98223.75;4972308;28;20057;-79
2023/05/08 04:57:30;;;;;;;14.20;12.38;;;14.30;99.90;;;13.71;100.00;98223.97;4980333;28;20062;-79
2023/05/08 04:59:57;;;;;;;14.48;11.52;;;14.30;99.90;;;13.66;100.00;98227.69;4973185;28;20101;-79
2023/05/08 05:02:27;;;;;;;15.00;10.75;;;14.30;99.90;;;13.64;100.00;98226.91;4971036;28;20069;-79
2023/05/08 05:04:57;;;;;;;12.60;11.05;;;14.40;99.90;;;13.69;100.00;98238.00;4970987;28;20082;-79
2023/05/08 05:07:25;;;;;;;13.85;10.82;;;14.40;99.90;;;13.68;100.00;98233.69;4967766;28;20574;-79
2023/05/08 05:09:52;;;;;;;12.13;10.77;;;14.30;99.90;;;13.77;100.00;98230.66;4968310;28;20066;-79
2023/05/08 05:12:20;;;;;;;12.27;10.35;;;14.40;99.90;;;13.75;100.00;98235.09;4970043;28;20082;-78
2023/05/08 05:14:48;;;;;;;10.90;9.70;;;14.40;99.90;;;13.76;100.00;98237.66;4982134;28;20051;-79
2023/05/08 05:17:15;;;;;;;18.17;15.05;;;14.50;99.90;;;13.80;100.00;98238.38;4972572;28;20049;-79
2023/05/08 05:19:42;;;;;;;16.92;14.23;;;14.50;99.90;;;13.82;100.00;98246.94;4977140;28;20133;-79
2023/05/08 05:22:09;;;;;;;18.75;14.25;;;14.50;99.90;;;13.87;100.00;98241.56;4976796;28;20046;-79
2023/05/08 05:24:36;;;;;;;16.25;14.43;;;14.50;99.90;;;13.99;100.00;98243.59;4974193;28;20545;-79
2023/05/08 05:27:03;;;;;;;17.42;14.52;;;14.50;99.90;;;13.86;100.00;98234.63;4972111;28;20047;-78
2023/05/08 05:29:30;;;;;;;18.63;11.40;;;14.50;99.90;;;14.00;100.00;98240.06;4954474;28;21537;-79
2023/05/08 05:31:57;;;;;;;19.92;16.00;;;14.60;99.90;;;14.07;100.00;98245.84;4983936;28;20138;-78
2023/05/08 05:34:24;;;;;;;20.30;15.85;;;14.60;99.90;;;14.11;100.00;98235.19;4957735;28;20058;-79
2023/05/08 05:36:52;;;;;;;18.85;16.10;;;14.60;99.90;;;14.14;100.00;98236.81;4974492;28;20062;-78
2023/05/08 05:39:19;;;;;;;18.17;15.27;;;14.70;99.90;;;14.11;100.00;98242.16;4970661;28;20054;-78
2023/05/08 05:41:47;;;;;;;20.70;15.88;;;14.70;99.90;;;14.19;100.00;98248.75;4973319;28;20387;-79
2023/05/08 05:44:15;;;;;;;22.20;17.48;;;14.70;99.90;;;14.15;100.00;98246.34;4973089;28;20051;-78
2023/05/08 05:46:43;;;;;;;29.42;21.27;;;14.70;99.90;;;14.10;100.00;98250.94;4951616;28;20056;-78
2023/05/08 05:49:11;;;;;;;27.05;19.25;;;14.70;99.90;;;14.30;100.00;98255.22;4970204;28;20694;-76
2023/05/08 05:51:39;;;;;;;21.52;18.58;;;14.80;99.90;;;14.25;100.00;98254.59;4973500;28;20190;-77
2023/05/08 05:54:06;;;;;;;27.10;21.02;;;14.80;99.90;;;14.33;100.00;98253.31;4962831;28;20448;-77
2023/05/08 05:56:33;;;;;;;25.73;20.45;;;14.90;99.90;;;14.51;100.00;98249.00;4990218;28;20046;-76
2023/05/08 05:59:00;;;;;;;22.70;18.35;;;15.00;99.90;;;14.52;100.00;98245.44;4968197;28;20051;-77
2023/05/08 06:01:27;;;;;;;27.20;20.48;;;15.00;99.90;;;14.38;100.00;98233.03;4969526;28;20686;-77
2023/05/08 06:03:55;;;;;;;29.85;23.15;;;15.00;99.90;;;14.33;100.00;98236.81;4969435;28;20050;-77
2023/05/08 06:06:23;;;;;;;24.17;19.23;;;14.90;99.90;;;14.47;100.00;98234.38;4969120;28;20138;-76
2023/05/08 06:08:50;;;;;;;22.58;18.88;;;15.00;99.90;;;14.57;100.00;98235.69;4951503;28;20526;-77
2023/05/08 06:11:18;;;;;;;18.42;15.98;;;15.10;99.90;;;14.64;100.00;98239.69;4967458;28;20046;-77
2023/05/08 06:13:45;;;;;;;23.65;18.73;;;15.20;99.90;;;14.73;100.00;98234.91;4950312;28;20442;-77
2023/05/08 06:16:14;;;;;;;19.92;17.58;;;15.20;99.90;;;14.69;100.00;98231.63;4964022;28;20071;-76
2023/05/08 06:18:41;;;;;;;25.35;18.75;;;15.20;99.90;;;14.69;100.00;98222.91;4953433;28;20165;-76
2023/05/08 06:21:08;;;;;;;22.85;18.15;;;15.30;99.90;;;14.65;100.00;98224.84;4970482;28;20198;-77
2023/05/08 06:23:35;;;;;;;19.85;16.80;;;15.30;99.90;;;14.57;100.00;98222.63;4965727;28;20353;-76
2023/05/08 06:26:02;;;;;;;20.33;16.20;;;15.30;99.90;;;14.40;100.00;98228.59;4967283;28;20053;-77
2023/05/08 06:28:29;;;;;;;19.58;16.38;;;15.20;99.90;;;14.39;100.00;98218.22;4970435;28;20057;-76
2023/05/08 06:30:59;;;;;;;21.63;17.85;;;15.20;99.90;;;14.41;100.00;98224.22;4953277;28;20098;-77
2023/05/08 06:33:26;;;;;;;25.17;19.02;;;15.20;99.90;;;14.68;100.00;98226.44;4950684;28;20058;-77
2023/05/08 06:35:53;;;;;;;18.20;15.57;;;15.10;99.90;;;14.52;100.00;98218.47;4987260;28;20543;-77
2023/05/08 06:38:20;;;;;;;22.52;17.65;;;15.10;99.90;;;14.99;100.00;98224.03;4965543;28;20051;-76
2023/05/08 06:40:49;;;;;;;20.25;17.13;;;15.20;99.90;;;15.00;100.00;98220.47;4968342;28;20054;-77
2023/05/08 06:43:16;;;;;;;23.17;18.02;;;15.30;99.90;;;15.19;100.00;98209.94;4969825;28;20082;-76
2023/05/08 06:45:44;;;;;;;28.02;19.90;;;15.50;99.90;;;15.22;100.00;98208.94;4979949;28;20061;-76
2023/05/08 06:48:12;;;;;;;19.40;15.95;;;15.60;99.90;;;15.17;100.00;98205.72;4965272;28;20078;-76
2023/05/08 06:50:40;;;;;;;22.40;17.00;;;15.70;99.90;;;15.14;100.00;98195.41;4978970;28;20053;-76
2023/05/08 06:53:08;;;;;;;20.15;16.75;;;15.70;99.90;;;15.00;100.00;98196.09;4980710;28;20086;-77
2023/05/08 06:55:35;;;;;;;31.00;15.65;;;15.70;99.90;;;15.08;100.00;98185.28;4970992;28;20101;-76
2023/05/08 06:58:02;;;;;;;17.60;15.10;;;15.70;99.90;;;15.30;100.00;98182.38;4964053;28;20081;-76
2023/05/08 07:00:30;;;;;;;16.95;15.15;;;15.70;99.90;;;15.30;100.00;98177.97;4981268;28;20127;-76
2023/05/08 07:02:57;;;;;;;21.05;15.13;;;15.80;99.90;;;15.44;100.00;98174.63;4984029;28;20116;-76
2023/05/08 07:05:25;;;;;;;15.25;13.57;;;15.80;99.90;;;15.33;100.00;98170.00;4981764;28;20097;-76
2023/05/08 07:07:53;;;;;;;16.15;14.10;;;15.90;99.90;;;15.51;100.00;98165.56;4968739;28;20368;-76
2023/05/08 07:10:21;;;;;;;18.60;14.52;;;15.90;99.90;;;15.65;100.00;98156.97;4966222;28;20059;-76
2023/05/08 07:12:49;;;;;;;19.10;15.27;;;16.00;99.90;;;15.50;100.00;98163.03;4967470;28;20130;-77
2023/05/08 07:15:17;;;;;;;16.05;12.52;;;16.00;99.90;;;15.52;100.00;98169.03;4976851;28;20054;-76
2023/05/08 07:17:50;;;;;;;17.02;14.27;;;16.10;99.90;;;15.76;100.00;98166.88;4976085;28;20061;-76
2023/05/08 07:20:17;;;;;;;16.65;14.13;;;16.10;99.90;;;15.69;100.00;98158.47;4981410;28;20065;-76
2023/05/08 07:22:45;;;;;;;17.10;14.32;;;16.10;99.90;;;15.55;100.00;98151.38;4973266;28;20050;-76
2023/05/08 07:25:12;;;;;;;19.40;15.05;;;16.10;99.90;;;15.75;100.00;98165.19;4976930;28;20078;-76
2023/05/08 07:27:40;;;;;;;18.55;15.15;;;16.00;99.90;;;15.81;100.00;98155.25;4990193;28;20066;-76
2023/05/08 07:30:08;;;;;;;13.48;11.50;;;16.20;99.90;;;15.90;100.00;98156.53;4985753;28;20169;-76
2023/05/08 07:32:37;;;;;;;13.40;11.05;;;16.30;99.90;;;15.81;100.00;98143.94;4981853;28;20088;-76
2023/05/08 07:35:08;;;;;;;15.75;12.05;;;16.40;99.90;;;15.35;100.00;98148.97;4981604;28;20050;-76
2023/05/08 07:37:38;;;;;;;13.38;11.82;;;16.30;99.90;;;15.43;100.00;98152.88;4980350;28;20113;-76
2023/05/08 07:40:09;;;;;;;20.98;12.80;;;16.10;99.90;;;15.57;100.00;98151.28;4978920;28;20430;-77
2023/05/08 07:42:43;;;;;;;15.98;12.57;;;16.10;99.90;;;15.52;100.00;98150.72;4969589;28;20050;-76
2023/05/08 07:45:13;;;;;;;14.38;12.88;;;16.20;99.90;;;15.77;100.00;98153.72;4985004;28;20081;-76
2023/05/08 07:47:52;;;;;;;14.93;12.38;;;16.20;99.90;;;15.83;100.00;98160.41;4990266;28;20150;-76
2023/05/08 07:50:20;;;;;;;15.05;11.63;;;16.30;99.90;;;15.67;100.00;98155.13;4974298;28;20054;-77
2023/05/08 07:52:50;;;;;;;25.98;20.42;;;16.30;99.90;;;15.56;100.00;98162.72;4981490;28;20058;-77
2023/05/08 07:55:19;;;;;;;28.60;21.75;;;16.20;99.90;;;15.36;100.00;98175.06;4975636;28;20074;-77
2023/05/08 07:57:47;;;;;;;36.42;26.10;;;16.10;99.90;;;15.22;100.00;98183.63;4970478;28;20051;-77
2023/05/08 08:00:15;;;;;;;39.45;26.83;;;15.90;99.90;;;14.98;100.00;98188.31;4960785;28;20053;-77
2023/05/08 08:02:43;;;;;;;37.78;28.30;;;15.70;99.90;;;14.92;100.00;98204.34;4975473;28;20047;-76
2023/05/08 08:05:11;;;;;;;37.03;26.88;;;15.70;99.90;;;14.99;100.00;98217.94;4973287;28;20039;-76
2023/05/08 08:07:39;;;;;;;38.90;28.23;;;15.60;99.90;;;14.90;100.00;98219.25;4969896;28;20143;-77
2023/05/08 08:10:07;;;;;;;35.65;26.17;;;15.60;99.90;;;14.72;100.00;98222.78;4972352;28;20440;-77
2023/05/08 08:12:37;;;;;;;36.78;26.23;;;15.50;99.90;;;14.64;100.00;98236.19;4970892;28;20051;-77
2023/05/08 08:15:06;;;;;;;33.17;24.60;;;15.40;99.90;;;14.88;100.00;98243.78;4968940;28;20196;-77
2023/05/08 08:17:33;;;;;;;38.25;27.27;;;15.50;99.90;;;14.81;100.00;98254.53;4957831;28;20058;-77
2023/05/08 08:20:02;;;;;;;41.05;27.70;;;15.40;99.90;;;14.62;100.00;98244.13;4972508;28;20109;-77
2023/05/08 08:22:30;;;;;;;35.30;26.30;;;15.40;99.90;;;14.60;100.00;98266.88;4960815;28;20790;-77
2023/05/08 08:24:57;;;;;;;34.20;26.60;;;15.40;99.90;;;14.67;100.00;98261.34;4975971;28;20069;-77
2023/05/08 08:27:24;;;;;;;37.95;27.98;;;15.40;99.90;;;14.96;100.00;98265.13;4974824;28;20057;-77
2023/05/08 08:29:56;;;;;;;34.42;27.10;;;15.40;99.90;;;15.03;100.00;98259.56;4964968;28;20082;-76
2023/05/08 08:32:42;;;;;;;35.78;27.40;;;15.60;99.90;;;15.10;100.00;98257.47;4973169;28;20046;-77
2023/05/08 08:35:10;;;;;;;30.08;24.10;;;15.70;99.90;;;15.15;100.00;98254.63;4973966;28;20054;-77
2023/05/08 08:37:38;;;;;;;32.15;25.27;;;15.80;99.90;;;15.19;100.00;98259.63;4967772;28;20487;-77
2023/05/08 08:40:06;;;;;;;29.42;24.20;;;15.80;99.90;;;15.18;100.00;98251.84;4971744;28;20814;-77
2023/05/08 08:42:34;;;;;;;33.60;26.33;;;15.90;99.90;;;15.55;100.00;98252.56;4967478;28;20460;-77
2023/05/08 08:45:02;;;;;;;36.88;27.23;;;16.00;99.90;;;15.67;100.00;98244.94;4970213;28;20054;-77
2023/05/08 08:47:40;;;;;;;37.88;28.25;;;16.10;99.90;;;15.61;100.00;98242.63;4967714;28;20105;-77
2023/05/08 08:50:09;;;;;;;34.03;26.40;;;16.10;99.90;;;15.47;100.00;98232.06;4973583;28;20122;-77
2023/05/08 08:52:45;;;;;;;33.28;27.42;;;16.00;99.90;;;15.38;100.00;98232.53;4956410;28;20404;-77
2023/05/08 08:55:18;;;;;;;36.95;27.88;;;16.10;99.90;;;15.54;100.00;98243.06;4967537;28;20555;-77
2023/05/08 08:57:58;;;;;;;41.78;29.98;;;16.00;99.90;;;15.36;100.00;98248.28;4953525;28;20051;-77
2023/05/08 09:00:30;;;;;;;38.22;26.98;;;15.90;99.90;;;15.52;100.00;98243.13;4971905;28;20113;-77
2023/05/08 09:02:59;;;;;;;39.17;28.35;;;16.00;99.90;;;15.43;100.00;98241.81;4967443;28;20053;-77
2023/05/08 09:05:26;;;;;;;40.38;29.05;;;16.00;99.90;;;15.36;100.00;98242.22;4967710;28;20086;-78
2023/05/08 09:07:54;;;;;;;40.55;31.13;;;16.00;99.90;;;15.36;100.00;98247.47;4977954;28;20046;-78
2023/05/08 09:10:23;;;;;;;43.05;29.23;;;15.90;99.90;;;15.36;100.00;98240.44;4977390;28;20055;-79
2023/05/08 09:12:50;;;;;;;36.30;26.45;;;16.00;99.90;;;15.52;100.00;98239.66;4969641;28;20051;-78
2023/05/08 09:15:17;;;;;;;37.08;25.98;;;16.10;99.90;;;15.76;100.00;98241.03;4944864;28;20054;-77
2023/05/08 09:17:45;;;;;;;37.13;28.08;;;16.20;99.90;;;15.69;100.00;98239.59;4954497;28;20058;-78
2023/05/08 09:20:15;;;;;;;33.22;24.75;;;16.30;99.90;;;15.82;100.00;98232.00;4969254;28;20448;-77
2023/05/08 09:22:43;;;;;;;31.38;23.75;;;16.30;99.90;;;15.39;100.00;98221.13;4955993;28;20821;-78
2023/05/08 09:25:10;;;;;;;32.97;24.92;;;16.30;99.90;;;15.68;100.00;98227.47;4976977;28;20073;-78
2023/05/08 09:27:38;;;;;;;31.35;24.13;;;16.20;99.90;;;16.02;100.00;98213.44;4968270;28;20408;-77
2023/05/08 09:30:07;;;;;;;30.02;22.83;;;16.30;99.90;;;16.39;100.00;98205.31;4971839;28;20658;-76
2023/05/08 09:32:38;;;;;;;29.88;23.17;;;16.60;99.90;;;16.48;100.00;98191.69;4969938;28;20470;-77
2023/05/08 09:35:07;;;;;;;28.13;23.23;;;16.80;99.90;;;17.04;100.00;98178.91;4969655;28;20057;-77
2023/05/08 09:37:42;;;;;;;29.48;21.73;;;17.10;99.90;;;16.90;100.00;98174.44;4957883;28;20080;-77
2023/05/08 09:40:20;;;;;;;25.58;19.13;;;17.20;99.90;;;16.95;100.00;98163.72;4973132;28;20054;-77
2023/05/08 09:42:49;;;;;;;23.38;18.90;;;;;;;16.91;100.00;98161.25;4967220;28;20054;-76
2023/05/08 09:45:31;;;;;;;22.88;19.92;;;17.60;99.90;;;16.94;100.00;98157.59;4969170;28;20047;-76
2023/05/08 09:47:58;;;;;;;26.13;18.88;;;17.60;99.90;;;16.85;100.00;98158.97;4960093;28;20054;-77
2023/05/08 09:50:26;;;;;;;26.42;20.70;;;17.50;99.90;;;17.18;100.00;98150.06;4966812;28;20058;-77
2023/05/08 09:52:54;;;;;;;23.48;19.10;;;17.60;99.90;;;17.24;100.00;98154.06;4969063;28;20063;-77
2023/05/08 09:55:21;;;;;;;23.45;18.27;;;17.70;99.90;;;17.18;100.00;98151.84;4966658;28;20124;-77
2023/05/08 09:57:58;;;;;;;21.25;17.70;;;17.90;99.90;;;17.05;100.00;98151.72;4952730;28;20583;-76
2023/05/08 10:00:28;;;;;;;19.85;16.15;;;17.70;99.90;;;16.83;100.00;98150.38;4967899;28;20061;-76
2023/05/08 10:03:00;;;;;;;21.58;16.92;;;17.60;99.90;;;17.03;100.00;98148.34;4968382;28;20058;-77
2023/05/08 10:05:33;;;;;;;22.42;16.88;;;17.60;99.90;;;16.31;100.00;98153.38;4952516;28;20499;-76
2023/05/08 10:08:28;;;;;;;26.23;20.15;;;17.50;99.90;;;16.15;100.00;98176.09;4966248;28;20058;-77
2023/05/08 10:11:20;;;;;;;23.98;20.02;;;17.10;99.90;;;16.17;100.00;98187.31;4965293;28;20064;-77
2023/05/08 10:13:48;;;;;;;26.20;20.00;;;16.90;99.90;;;16.21;100.00;98186.22;4960862;28;20688;-78
2023/05/08 10:16:17;;;;;;;29.70;21.38;;;16.90;99.90;;;16.18;100.00;98189.88;4965884;28;20138;-76
2023/05/08 10:18:49;;;;;;;24.98;19.65;;;16.90;99.90;;;16.07;100.00;98193.06;4967442;28;20113;-76
2023/05/08 10:21:19;;;;;;;22.92;18.48;;;17.00;99.90;;;16.47;100.00;98198.72;4972485;28;20057;-77